Time;durP1;ratioP1;P1;durP2;ratioP2;P2;SDS_P1;SDS_P2;PMS_P1;PMS_P2;Temp;Humidity;BMP_temperature;BMP_pressure;BME280_temperature;BME280_humidity;BME280_pressure;Samples;Min_cycle;Max_cycle;Signal;HPM_P1;HPM_P2
2023/09/01 00:01:51;;;;;;;1.77;0.63;;;;;;;23.51;46.92;101188.94;5070451;28;20403;-81
2023/09/01 00:04:17;;;;;;;1.63;0.63;;;;;;;23.46;47.04;101187.81;5070225;28;20835;-82
2023/09/01 00:06:45;;;;;;;1.25;0.50;;;;;;;23.42;46.87;101192.03;5071325;28;20406;-80
2023/09/01 00:09:10;;;;;;;1.57;0.70;;;;;;;23.37;47.42;101188.44;5054872;28;20897;-82
2023/09/01 00:11:36;;;;;;;1.65;0.63;;;;;;;23.38;47.18;101187.38;5072228;28;20387;-83
2023/09/01 00:14:05;;;;;;;1.20;0.60;;;;;;;23.50;46.86;101193.56;5072098;28;20390;-81
2023/09/01 00:16:30;;;;;;;1.23;0.50;;;;;;;23.51;46.83;101188.94;5055050;28;20398;-81
2023/09/01 00:18:56;;;;;;;1.02;0.45;;;;;;;23.47;46.82;101186.72;5071932;28;20468;-81
2023/09/01 00:21:24;;;;;;;1.80;0.70;;;;;;;23.35;47.08;101187.84;5070690;28;20391;-81
2023/09/01 00:23:52;;;;;;;2.25;0.88;;;;;;;23.36;47.12;101187.63;5071648;28;20383;-81
2023/09/01 00:26:18;;;;;;;1.58;0.80;;;;;;;23.31;47.43;101179.41;5070205;28;20992;-84
2023/09/01 00:28:49;;;;;;;1.17;0.60;;;;;;;23.24;47.59;101182.25;5070081;28;20478;-83
2023/09/01 00:31:17;;;;;;;1.27;0.50;;;;;;;23.24;47.58;101184.16;5070431;28;20460;-85
2023/09/01 00:33:50;;;;;;;1.35;0.52;;;;;;;23.27;47.76;101186.38;5054122;28;20387;-81
2023/09/01 00:36:18;;;;;;;1.27;0.50;;;;;;;23.27;47.77;101186.38;5070624;28;20395;-81
2023/09/01 00:38:44;;;;;;;0.77;0.40;;;;;;;23.24;47.88;101176.03;5072059;28;20458;-83
2023/09/01 00:41:10;;;;;;;1.27;0.50;;;;;;;23.23;47.84;101187.94;5054095;28;20833;-82
2023/09/01 00:43:37;;;;;;;1.07;0.60;;;;;;;23.15;47.83;101182.91;5087566;28;20394;-82
2023/09/01 00:46:03;;;;;;;1.70;0.77;;;;;;;23.20;47.90;101177.59;5091058;28;20389;-82
2023/09/01 00:48:30;;;;;;;1.37;0.60;;;;;;;23.25;47.76;101188.50;5072888;28;20396;-82
2023/09/01 00:51:02;;;;;;;1.67;0.73;;;;;;;23.16;48.23;101192.69;5073715;28;20938;-82
2023/09/01 00:53:28;;;;;;;1.95;0.70;;;;;;;23.15;48.33;101189.13;5091250;28;20385;-82
2023/09/01 00:55:57;;;;;;;1.27;0.50;;;;;;;23.17;48.40;101200.53;5073771;28;20565;-81
2023/09/01 00:58:25;;;;;;;1.67;0.80;;;;;;;23.25;47.95;101193.91;5074884;28;20393;-81
2023/09/01 01:00:52;;;;;;;1.75;0.70;;;;;;;23.37;47.67;101188.44;5056589;28;20455;-82
2023/09/01 01:03:20;;;;;;;1.60;0.60;;;;;;;23.37;47.65;101188.44;5091408;28;20377;-82
2023/09/01 01:06:09;;;;;;;1.17;0.50;;;;;;;23.37;47.84;101188.44;5090977;28;20400;-82
2023/09/01 01:08:47;;;;;;;2.08;0.88;;;;;;;23.36;47.76;101189.50;5090185;28;20378;-82
2023/09/01 01:11:43;;;;;;;1.30;0.57;;;;;;;23.37;47.77;101183.03;5072999;28;20903;-81
2023/09/01 01:14:18;;;;;;;1.95;0.90;;;;;;;23.28;47.90;101180.72;5073044;28;20840;-84
2023/09/01 01:16:43;;;;;;;2.10;0.80;;;;;;;23.23;47.90;101196.88;5089924;28;20468;-82
2023/09/01 01:19:32;;;;;;;1.77;0.60;;;;;;;23.16;47.97;101201.59;5072660;28;20836;-82
2023/09/01 01:22:00;;;;;;;1.42;0.68;;;;;;;23.11;48.33;101198.78;5072490;28;20458;-82
2023/09/01 01:24:26;;;;;;;1.33;0.60;;;;;;;23.05;48.62;101202.47;5089054;28;20404;-83
2023/09/01 01:26:55;;;;;;;1.38;0.60;;;;;;;22.96;49.18;101198.47;5055679;28;20436;-83
2023/09/01 01:29:21;;;;;;;1.58;0.60;;;;;;;22.94;49.25;101209.53;5072593;28;20454;-83
2023/09/01 01:31:46;;;;;;;1.50;0.57;;;;;;;22.95;49.21;101208.47;5091088;28;20466;-83
2023/09/01 01:34:19;;;;;;;1.43;0.63;;;;;;;22.93;49.29;101207.88;5090869;28;20377;-82
2023/09/01 01:37:03;;;;;;;1.50;0.55;;;;;;;22.86;49.82;101204.50;5072514;28;20732;-83
2023/09/01 01:39:33;;;;;;;1.35;0.60;;;;;;;22.86;49.73;101209.91;5074056;28;21090;-82
2023/09/01 01:42:10;;;;;;;2.58;0.90;;;;;;;22.82;49.75;101214.97;5072220;28;20416;-81
2023/09/01 01:44:39;;;;;;;1.40;0.60;;;;;;;22.78;49.71;101213.81;5074061;28;20385;-82
2023/09/01 01:47:08;;;;;;;1.35;0.50;;;;;;;22.76;50.01;101221.34;5073374;28;20420;-82
2023/09/01 01:49:34;;;;;;;1.23;0.57;;;;;;;22.68;50.26;101216.31;5072832;28;21592;-83
2023/09/01 01:52:00;;;;;;;1.88;0.70;;;;;;;22.58;50.89;101208.81;5072287;28;20990;-82
2023/09/01 01:54:27;;;;;;;1.30;0.55;;;;;;;22.60;50.45;101212.09;5072859;28;20470;-82
2023/09/01 01:56:53;;;;;;;1.43;0.50;;;;;;;22.62;50.50;101207.28;5090614;28;20822;-84
2023/09/01 01:59:18;;;;;;;1.63;0.60;;;;;;;22.60;50.70;101208.56;5089578;28;20381;-81
2023/09/01 02:01:52;;;;;;;1.40;0.77;;;;;;;22.58;50.75;101211.50;5071988;28;20393;-81
2023/09/01 02:04:17;;;;;;;1.77;0.70;;;;;;;22.41;51.49;101216.81;5089448;28;20393;-82
2023/09/01 02:06:47;;;;;;;1.38;0.52;;;;;;;22.33;52.03;101214.50;5090507;28;20397;-82
2023/09/01 02:09:14;;;;;;;1.30;0.50;;;;;;;22.35;52.04;101214.25;5072319;28;20836;-82
2023/09/01 02:11:40;;;;;;;4.00;0.90;;;;;;;22.33;51.92;101218.00;5055415;28;20469;-82
2023/09/01 02:14:06;;;;;;;2.13;0.70;;;;;;;22.36;51.72;101211.28;5070805;28;20492;-81
2023/09/01 02:16:34;;;;;;;1.83;0.70;;;;;;;22.34;51.76;101210.72;5070693;28;20423;-82
2023/09/01 02:19:00;;;;;;;2.15;0.75;;;;;;;22.31;51.87;101216.59;5070401;28;20469;-83
2023/09/01 02:21:27;;;;;;;2.17;0.98;;;;;;;22.26;52.08;101217.31;5070632;28;20397;-82
2023/09/01 02:23:54;;;;;;;2.13;0.80;;;;;;;22.28;52.21;101220.59;5088249;28;20401;-80
2023/09/01 02:26:22;;;;;;;1.93;1.10;;;;;;;22.23;51.86;101225.00;5070744;28;20483;-84
2023/09/01 02:28:53;;;;;;;2.08;0.77;;;;;;;22.22;52.07;101215.25;5033298;28;20389;-91
2023/09/01 02:31:24;;;;;;;1.30;0.50;;;;;;;22.26;51.73;101203.78;5051637;28;20380;-85
2023/09/01 02:33:53;;;;;;;1.67;0.60;;;;;;;22.25;51.75;101212.91;5029774;28;20381;-86
2023/09/01 02:36:32;;;;;;;1.83;0.80;;;;;;;22.20;51.75;101217.38;5046106;28;20470;-86
2023/09/01 02:39:07;;;;;;;1.92;0.75;;;;;;;22.21;52.18;101210.94;5046742;28;20395;-88
2023/09/01 02:41:33;;;;;;;1.75;0.70;;;;;;;22.21;52.00;101213.63;5031050;28;20524;-85
2023/09/01 02:43:59;;;;;;;1.60;0.70;;;;;;;22.20;51.98;101207.41;5030485;28;20417;-85
2023/09/01 02:46:27;;;;;;;1.42;0.55;;;;;;;22.16;52.09;101203.53;5047958;28;20420;-84
2023/09/01 02:48:53;;;;;;;1.63;0.60;;;;;;;22.25;51.67;101210.22;5047951;28;20388;-85
2023/09/01 02:51:20;;;;;;;1.37;0.50;;;;;;;22.25;51.67;101206.69;5048103;28;20929;-85
2023/09/01 02:53:47;;;;;;;1.42;0.70;;;;;;;22.24;51.42;101205.88;5047953;28;20441;-86
2023/09/01 02:56:12;;;;;;;1.00;0.40;;;;;;;22.21;51.47;101210.94;5047583;28;20446;-86
2023/09/01 02:58:38;;;;;;;1.10;0.50;;;;;;;22.19;51.75;101205.75;5047455;28;20399;-85
2023/09/01 03:01:13;;;;;;;1.10;0.52;;;;;;;22.17;51.67;101210.59;5014930;28;20487;-82
2023/09/01 03:03:42;;;;;;;1.33;0.45;;;;;;;22.16;51.72;101217.03;5047800;28;20446;-83
2023/09/01 03:06:11;;;;;;;0.93;0.50;;;;;;;22.05;51.87;101207.06;5029869;28;20918;-83
2023/09/01 03:08:38;;;;;;;0.98;0.63;;;;;;;22.08;51.94;101215.50;5067534;28;20474;-82
2023/09/01 03:11:04;;;;;;;1.20;0.57;;;;;;;22.00;52.25;101201.53;5085190;28;20439;-83
2023/09/01 03:13:33;;;;;;;1.25;0.47;;;;;;;21.95;52.42;101210.34;5085153;28;20474;-83
2023/09/01 03:15:59;;;;;;;1.77;0.70;;;;;;;21.94;52.22;101208.69;5065900;28;20456;-82
2023/09/01 03:18:24;;;;;;;1.60;0.60;;;;;;;21.84;52.96;101208.44;5068073;28;20395;-81
2023/09/01 03:20:53;;;;;;;1.13;0.60;;;;;;;21.84;53.02;101216.53;5067850;28;20449;-82
2023/09/01 03:23:20;;;;;;;1.23;0.55;;;;;;;21.84;52.80;101214.69;5069377;28;20401;-83
2023/09/01 03:25:54;;;;;;;1.20;0.55;;;;;;;21.91;52.45;101219.94;5067798;28;20395;-82
2023/09/01 03:28:23;;;;;;;1.35;0.50;;;;;;;21.79;52.74;101219.94;5033890;28;20406;-82
2023/09/01 03:30:49;;;;;;;1.17;0.45;;;;;;;21.77;53.07;101216.66;5051870;28;20978;-83
2023/09/01 03:33:16;;;;;;;1.48;0.60;;;;;;;21.73;53.22;101226.25;5073970;28;20421;-82
2023/09/01 03:35:41;;;;;;;0.88;0.43;;;;;;;21.64;53.72;101222.25;5072032;28;20405;-82
2023/09/01 03:38:09;;;;;;;1.17;0.60;;;;;;;21.70;53.43;101227.56;5073148;28;20721;-82
2023/09/01 03:40:40;;;;;;;1.27;0.50;;;;;;;21.69;53.38;101225.91;5089370;28;20395;-82
2023/09/01 03:43:09;;;;;;;1.50;0.90;;;;;;;21.72;53.42;101238.13;5089188;28;20425;-83
2023/09/01 03:45:38;;;;;;;1.10;0.52;;;;;;;21.75;53.08;101232.25;5072149;28;20425;-81
2023/09/01 03:48:04;;;;;;;1.40;0.50;;;;;;;21.69;53.40;101236.69;5072544;28;20459;-82
2023/09/01 03:50:30;;;;;;;1.02;0.45;;;;;;;21.70;53.34;101227.56;5088793;28;20390;-83
2023/09/01 03:52:56;;;;;;;1.40;0.70;;;;;;;21.68;53.50;101228.81;5071600;28;20394;-82
2023/09/01 03:55:23;;;;;;;1.50;0.63;;;;;;;21.62;53.54;101235.16;5071193;28;20390;-82
2023/09/01 03:57:53;;;;;;;0.98;0.50;;;;;;;21.57;53.80;101233.97;5072378;28;20477;-83
2023/09/01 04:00:20;;;;;;;2.15;0.80;;;;;;;21.54;54.06;101229.03;5071216;28;20463;-81
2023/09/01 04:02:51;;;;;;;1.20;0.50;;;;;;;21.43;54.20;101240.59;5087780;28;20473;-80
2023/09/01 04:05:22;;;;;;;2.20;0.83;;;;;;;21.32;54.78;101242.19;5067645;28;20428;-79
2023/09/01 04:07:47;;;;;;;1.38;0.70;;;;;;;21.28;54.80;101240.16;5070493;28;20967;-80
2023/09/01 04:10:13;;;;;;;1.83;0.70;;;;;;;21.42;54.54;101243.50;5086567;28;20398;-79
2023/09/01 04:12:38;;;;;;;1.23;0.63;;;;;;;21.42;54.54;101246.22;5086783;28;20398;-83
2023/09/01 04:15:06;;;;;;;1.73;0.70;;;;;;;21.35;54.72;101243.59;5087557;28;20434;-79
2023/09/01 04:17:32;;;;;;;1.48;0.68;;;;;;;21.43;54.21;101251.38;5071680;28;20397;-79
2023/09/01 04:19:59;;;;;;;1.33;0.60;;;;;;;21.44;54.23;101252.19;5071534;28;20383;-77
2023/09/01 04:22:26;;;;;;;1.00;0.50;;;;;;;21.43;54.34;101264.88;5087881;28;20395;-80
2023/09/01 04:24:51;;;;;;;1.63;0.60;;;;;;;21.53;54.46;101261.63;5072583;28;20398;-78
2023/09/01 04:27:17;;;;;;;1.10;0.60;;;;;;;21.56;54.22;101270.09;5070902;28;20395;-79
2023/09/01 04:29:43;;;;;;;1.47;0.60;;;;;;;21.54;54.45;101274.09;5069086;28;20391;-83
2023/09/01 04:32:08;;;;;;;1.58;0.68;;;;;;;21.55;54.41;101273.00;5069525;28;20399;-84
2023/09/01 04:34:35;;;;;;;1.23;0.52;;;;;;;21.65;54.14;101278.69;5071790;28;20829;-84
2023/09/01 04:37:00;;;;;;;1.53;0.80;;;;;;;21.70;54.07;101267.22;5087431;28;20466;-84
2023/09/01 04:39:26;;;;;;;0.90;0.30;;;;;;;21.69;54.28;101260.16;5072393;28;20581;-86
2023/09/01 04:41:54;;;;;;;0.63;0.30;;;;;;;21.72;54.13;101271.31;5073125;28;20714;-80
2023/09/01 04:44:20;;;;;;;1.45;0.55;;;;;;;21.74;54.11;101266.50;5086241;28;20472;-85
2023/09/01 04:46:48;;;;;;;1.55;0.60;;;;;;;21.86;53.87;101271.09;5067777;28;20416;-85
2023/09/01 04:49:23;;;;;;;1.08;0.55;;;;;;;21.87;53.93;101265.47;5052595;28;20454;-85
2023/09/01 04:51:49;;;;;;;1.15;0.50;;;;;;;21.94;53.84;101268.88;5050713;28;20411;-84
2023/09/01 04:54:22;;;;;;;0.60;0.40;;;;;;;22.06;53.35;101273.50;5085171;28;20420;-86
2023/09/01 04:56:48;;;;;;;1.33;0.60;;;;;;;22.11;53.58;101277.16;5051145;28;20837;-82
2023/09/01 04:59:17;;;;;;;1.93;0.90;;;;;;;22.21;53.31;101273.84;5050393;28;20431;-84
2023/09/01 05:01:46;;;;;;;0.80;0.50;;;;;;;22.38;52.69;101278.59;5066395;28;20918;-87
2023/09/01 05:04:14;;;;;;;0.47;0.47;;;;;;;22.47;52.83;101290.69;5033349;28;20389;-85
2023/09/01 05:06:40;;;;;;;0.90;0.38;;;;;;;22.49;52.77;101281.31;5031938;28;20430;-84
2023/09/01 05:09:05;;;;;;;0.40;0.40;;;;;;;22.44;52.89;101286.59;5072265;28;20398;-87
2023/09/01 05:11:32;;;;;;;0.80;0.43;;;;;;;22.68;52.26;101281.97;5053748;28;20515;-88
2023/09/01 05:13:57;;;;;;;0.80;0.40;;;;;;;22.95;52.17;101277.94;5071150;28;20444;-87
2023/09/01 05:16:27;;;;;;;1.55;0.80;;;;;;;23.36;51.05;101285.00;5054447;28;20403;-89
2023/09/01 05:18:53;;;;;;;0.80;0.50;;;;;;;23.29;51.25;101284.34;5055874;28;20401;-88
2023/09/01 05:21:19;;;;;;;1.48;0.43;;;;;;;23.24;51.05;101276.94;5055859;28;20387;-88
2023/09/01 05:23:44;;;;;;;0.90;0.50;;;;;;;23.16;51.17;101277.31;5070961;28;20382;-87
2023/09/01 05:26:10;;;;;;;1.20;0.47;;;;;;;23.18;51.17;101286.03;5053476;28;20387;-89
2023/09/01 05:28:35;;;;;;;0.47;0.30;;;;;;;23.37;51.13;101286.66;5070547;28;20398;-89
2023/09/01 05:31:02;;;;;;;1.10;0.60;;;;;;;23.28;50.97;101280.81;5071884;28;20485;-88
2023/09/01 05:33:28;;;;;;;1.00;0.53;;;;;;;23.41;50.91;101287.00;5088718;28;20391;-87
2023/09/01 05:35:53;;;;;;;1.80;0.52;;;;;;;23.53;50.51;101285.03;5086791;28;20425;-89
2023/09/01 05:38:19;;;;;;;2.20;0.60;;;;;;;23.58;50.48;101279.72;5071683;28;20493;-88
2023/09/01 05:40:45;;;;;;;1.60;0.63;;;;;;;23.60;50.48;101261.34;5070885;28;20383;-88
2023/09/01 05:43:17;;;;;;;2.13;0.70;;;;;;;23.65;50.17;101283.09;5080433;28;20405;-88
2023/09/01 05:45:43;;;;;;;1.67;0.60;;;;;;;23.83;50.01;101281.28;5091704;28;20401;-87
2023/09/01 05:48:09;;;;;;;2.72;0.80;;;;;;;23.98;49.63;101286.13;5100377;28;20398;-87
2023/09/01 05:50:34;;;;;;;3.10;0.80;;;;;;;23.83;49.52;101276.69;5093593;28;20454;-87
2023/09/01 05:53:00;;;;;;;1.95;0.60;;;;;;;23.81;49.60;101278.81;5091605;28;20378;-88
2023/09/01 05:55:25;;;;;;;2.83;0.73;;;;;;;23.84;49.45;101299.16;5091399;28;20381;-87
2023/09/01 05:57:52;;;;;;;1.70;0.77;;;;;;;23.41;49.54;101290.53;5090979;28;20381;-88
2023/09/01 06:00:18;;;;;;;2.73;0.80;;;;;;;23.59;49.38;101296.81;5090755;28;20392;-87
2023/09/01 06:02:43;;;;;;;4.05;1.60;;;;;;;23.57;49.13;101288.94;5074012;28;20384;-88
2023/09/01 06:05:09;;;;;;;3.53;1.10;;;;;;;23.68;48.68;101289.94;5090066;28;20527;-88
2023/09/01 06:07:36;;;;;;;2.92;1.10;;;;;;;23.87;48.79;101308.69;5088045;28;20399;-87
2023/09/01 06:10:03;;;;;;;2.13;1.00;;;;;;;24.14;48.01;101295.31;5071007;28;20381;-88
2023/09/01 06:12:31;;;;;;;2.60;0.88;;;;;;;23.90;48.12;101303.59;5091609;28;20512;-86
2023/09/01 06:14:57;;;;;;;6.63;1.55;;;;;;;23.83;48.23;101295.63;5090680;28;20385;-87
2023/09/01 06:17:23;;;;;;;2.37;0.93;;;;;;;23.92;47.51;101290.63;5090985;28;20391;-87
2023/09/01 06:19:48;;;;;;;2.55;0.73;;;;;;;23.89;47.71;101298.44;5091572;28;20396;-87
2023/09/01 06:22:14;;;;;;;1.23;0.60;;;;;;;24.00;47.11;101292.97;5070754;28;20394;-88
2023/09/01 06:24:39;;;;;;;0.90;0.60;;;;;;;24.21;47.06;101295.97;5069195;28;20498;-86
2023/09/01 06:27:04;;;;;;;1.33;0.70;;;;;;;24.25;46.54;101297.13;5070625;28;20411;-87
2023/09/01 06:29:30;;;;;;;0.98;0.47;;;;;;;24.47;46.32;101289.06;5068603;28;20957;-88
2023/09/01 06:31:56;;;;;;;0.88;0.30;;;;;;;24.50;46.16;101295.88;5070259;28;20457;-87
2023/09/01 06:34:21;;;;;;;1.33;0.60;;;;;;;24.47;46.01;101294.50;5051160;28;20395;-85
2023/09/01 06:36:48;;;;;;;1.00;0.50;;;;;;;24.41;45.86;101298.19;5067922;28;20426;-85
2023/09/01 06:39:15;;;;;;;1.40;0.60;;;;;;;24.55;45.60;101304.91;5069654;28;20383;-86
2023/09/01 06:41:42;;;;;;;0.80;0.50;;;;;;;24.74;45.28;101312.75;5070605;28;20963;-85
2023/09/01 06:44:07;;;;;;;0.68;0.30;;;;;;;24.86;45.11;101313.47;5052441;28;20793;-86
2023/09/01 06:46:33;;;;;;;1.67;0.70;;;;;;;24.80;44.64;101307.16;5069763;28;20407;-86
2023/09/01 06:48:58;;;;;;;0.80;0.40;;;;;;;24.77;44.58;101307.66;5051071;28;20478;-85
2023/09/01 06:51:24;;;;;;;0.63;0.40;;;;;;;24.79;44.83;101305.53;5051451;28;20473;-85
2023/09/01 06:53:49;;;;;;;0.70;0.30;;;;;;;25.02;44.22;101298.22;5085289;28;20384;-86
2023/09/01 06:56:15;;;;;;;1.23;0.60;;;;;;;25.19;43.79;101317.13;5091390;28;20381;-86
2023/09/01 06:58:41;;;;;;;1.13;0.50;;;;;;;25.03;43.78;101318.03;5090263;28;20413;-85
2023/09/01 07:01:11;;;;;;;1.10;0.70;;;;;;;25.30;43.54;101321.66;5095373;28;20381;-87
2023/09/01 07:03:37;;;;;;;1.38;0.60;;;;;;;25.35;43.16;101324.44;5075081;28;20450;-85
2023/09/01 07:06:03;;;;;;;1.08;0.43;;;;;;;25.58;42.68;101324.38;5073874;28;20920;-87
2023/09/01 07:08:29;;;;;;;1.20;0.50;;;;;;;25.41;42.94;101328.03;5077241;28;20408;-86
2023/09/01 07:11:03;;;;;;;0.80;0.40;;;;;;;25.61;42.55;101337.47;5096402;28;20410;-88
2023/09/01 07:13:31;;;;;;;0.80;0.50;;;;;;;25.60;42.71;101330.38;5097370;28;20415;-88
2023/09/01 07:15:57;;;;;;;0.82;0.40;;;;;;;25.37;41.75;101338.56;5095234;28;20385;-86
2023/09/01 07:18:23;;;;;;;0.70;0.40;;;;;;;25.23;41.53;101337.28;5096393;28;20387;-86
2023/09/01 07:20:50;;;;;;;0.80;0.40;;;;;;;25.51;41.87;101341.69;5095667;28;20381;-86
2023/09/01 07:23:16;;;;;;;0.50;0.30;;;;;;;25.79;41.17;101337.09;5097207;28;20383;-90
2023/09/01 07:25:44;;;;;;;0.40;0.40;;;;;;;25.89;41.42;101334.47;5097452;28;20385;-88
2023/09/01 07:28:13;;;;;;;0.88;0.40;;;;;;;26.16;40.79;101338.25;5094222;28;20549;-88
2023/09/01 07:30:39;;;;;;;1.83;0.52;;;;;;;26.17;40.33;101346.16;5094235;28;20891;-87
2023/09/01 07:33:05;;;;;;;2.47;0.70;;;;;;;26.06;40.33;101358.84;5095258;28;20448;-87
2023/09/01 07:35:31;;;;;;;0.80;0.50;;;;;;;26.20;40.15;101348.38;5094754;28;20511;-87
2023/09/01 07:37:57;;;;;;;0.47;0.30;;;;;;;26.40;39.87;101357.72;5097450;28;20388;-86
2023/09/01 07:40:23;;;;;;;1.00;0.45;;;;;;;26.26;39.70;101351.94;5093751;28;20381;-85
2023/09/01 07:42:50;;;;;;;1.40;0.80;;;;;;;26.35;39.92;101363.16;5091200;28;20397;-85
2023/09/01 07:45:15;;;;;;;1.08;0.57;;;;;;;26.44;39.48;101376.00;5092891;28;20381;-84
2023/09/01 07:47:42;;;;;;;1.15;0.60;;;;;;;26.62;39.35;101363.09;5076272;28;20434;-85
2023/09/01 07:50:08;;;;;;;0.85;0.40;;;;;;;26.67;39.12;101363.13;5094003;28;20385;-83
2023/09/01 07:52:35;;;;;;;0.88;0.40;;;;;;;26.54;38.64;101366.25;5091633;28;20431;-82
2023/09/01 07:55:01;;;;;;;1.23;0.50;;;;;;;26.45;38.95;101365.94;5096054;28;20388;-84
2023/09/01 07:57:26;;;;;;;1.13;0.70;;;;;;;26.46;38.83;101371.09;5096012;28;20385;-87
2023/09/01 07:59:52;;;;;;;1.17;0.53;;;;;;;26.40;38.82;101365.88;5094521;28;20460;-85
2023/09/01 08:02:17;;;;;;;0.55;0.35;;;;;;;26.51;38.92;101359.47;5095923;28;20760;-82
2023/09/01 08:04:44;;;;;;;1.00;0.50;;;;;;;26.75;38.90;101369.97;5095222;28;20418;-86
2023/09/01 08:07:09;;;;;;;1.27;0.60;;;;;;;26.74;38.69;101371.88;5094175;28;20764;-83
2023/09/01 08:09:35;;;;;;;1.10;0.50;;;;;;;26.81;38.44;101361.59;5092417;28;20946;-83
2023/09/01 08:12:00;;;;;;;1.33;0.53;;;;;;;26.93;38.38;101374.97;5074787;28;20377;-83
2023/09/01 08:14:26;;;;;;;0.73;0.40;;;;;;;26.86;38.45;101367.03;5094010;28;20393;-83
2023/09/01 08:16:51;;;;;;;0.88;0.40;;;;;;;27.12;38.10;101364.47;5094042;28;20381;-85
2023/09/01 08:19:18;;;;;;;0.93;0.50;;;;;;;27.16;37.77;101376.44;5092376;28;20374;-86
2023/09/01 08:21:43;;;;;;;0.60;0.40;;;;;;;27.28;37.86;101387.16;5091235;28;20397;-83
2023/09/01 08:24:09;;;;;;;1.70;0.67;;;;;;;27.40;37.65;101367.88;5091698;28;20390;-83
2023/09/01 08:26:35;;;;;;;1.17;0.80;;;;;;;27.30;36.96;101375.97;5090885;28;20419;-83
2023/09/01 08:29:03;;;;;;;1.00;0.50;;;;;;;27.21;36.80;101362.88;5074628;28;20454;-85
2023/09/01 08:31:29;;;;;;;0.70;0.35;;;;;;;27.21;37.01;101364.78;5093061;28;20878;-84
2023/09/01 08:33:55;;;;;;;0.75;0.40;;;;;;;27.04;36.80;101373.13;5092502;28;20385;-85
2023/09/01 08:36:21;;;;;;;0.77;0.50;;;;;;;27.31;36.87;101359.38;5073908;28;20887;-84
2023/09/01 08:38:47;;;;;;;0.93;0.43;;;;;;;27.63;36.46;101364.66;5090868;28;20836;-86
2023/09/01 08:41:15;;;;;;;1.07;0.47;;;;;;;27.73;36.31;101360.31;5091022;28;20393;-85
2023/09/01 08:43:42;;;;;;;0.55;0.35;;;;;;;27.64;35.77;101362.75;5077975;28;20413;-86
2023/09/01 08:46:11;;;;;;;0.38;0.20;;;;;;;27.46;36.07;101361.38;5078169;28;20377;-87
2023/09/01 08:48:37;;;;;;;1.10;0.50;;;;;;;27.57;35.18;101365.75;5094329;28;20408;-79
2023/09/01 08:51:05;;;;;;;1.10;0.70;;;;;;;27.48;35.58;101353.75;5091981;28;20373;-82
2023/09/01 08:53:32;;;;;;;1.10;0.50;;;;;;;27.61;35.19;101363.31;5091964;28;20384;-83
2023/09/01 08:55:58;;;;;;;0.85;0.43;;;;;;;27.71;34.71;101357.03;5090642;28;20806;-82
2023/09/01 08:58:23;;;;;;;1.30;0.52;;;;;;;27.72;34.23;101355.97;5091397;28;20381;-82
2023/09/01 09:00:48;;;;;;;0.93;0.50;;;;;;;27.83;34.47;101361.16;5090337;28;20748;-82
2023/09/01 09:03:16;;;;;;;0.80;0.40;;;;;;;27.83;33.98;101355.69;5074628;28;20902;-84
2023/09/01 09:05:44;;;;;;;0.82;0.40;;;;;;;27.73;34.38;101361.16;5073658;28;20385;-82
2023/09/01 09:08:16;;;;;;;0.55;0.30;;;;;;;27.81;34.08;101362.53;5075151;28;20499;-83
2023/09/01 09:10:48;;;;;;;1.60;0.60;;;;;;;27.98;33.85;101367.75;5091859;28;20389;-82
2023/09/01 09:13:26;;;;;;;0.63;0.30;;;;;;;27.67;34.02;101364.13;5092626;28;20381;-83
2023/09/01 09:16:12;;;;;;;1.00;0.60;;;;;;;28.15;33.88;101351.94;5091118;28;20887;-83
2023/09/01 09:18:43;;;;;;;0.80;0.40;;;;;;;27.94;32.74;101353.84;5072035;28;20389;-83
2023/09/01 09:21:26;;;;;;;0.88;0.43;;;;;;;27.96;33.78;101345.41;5091349;28;20682;-84
2023/09/01 09:23:53;;;;;;;0.83;0.40;;;;;;;28.08;33.28;101358.75;5089862;28;20410;-82
2023/09/01 09:26:27;;;;;;;1.30;0.50;;;;;;;28.27;33.06;101348.13;5090633;28;20385;-82
2023/09/01 09:28:53;;;;;;;1.27;0.60;;;;;;;28.27;32.87;101348.13;5071417;28;20479;-83
2023/09/01 09:31:30;;;;;;;1.15;0.55;;;;;;;28.49;32.73;101348.66;5091606;28;20895;-82
2023/09/01 09:33:55;;;;;;;1.20;0.70;;;;;;;28.27;32.41;101343.50;5071146;28;20506;-82
2023/09/01 09:36:36;;;;;;;1.13;0.53;;;;;;;28.59;32.84;101340.50;5088565;28;20472;-82
2023/09/01 09:39:06;;;;;;;1.48;0.50;;;;;;;28.67;32.18;101330.09;5096238;28;20770;-91
2023/09/01 09:41:45;;;;;;;1.02;0.43;;;;;;;28.34;31.93;101338.59;5095859;28;20389;-85
2023/09/01 09:44:10;;;;;;;1.20;0.50;;;;;;;28.53;32.00;101344.31;5074321;28;20486;-84
2023/09/01 09:46:41;;;;;;;1.70;0.70;;;;;;;28.58;31.13;101343.50;5093138;28;20470;-86
2023/09/01 09:49:14;;;;;;;0.88;0.45;;;;;;;28.67;30.95;101333.63;5075449;28;20397;-91
2023/09/01 09:51:42;;;;;;;0.90;0.63;;;;;;;28.57;31.40;101339.13;5091467;28;20393;-87
2023/09/01 09:54:10;;;;;;;0.80;0.50;;;;;;;28.39;30.70;101335.03;5073650;28;20385;-85
2023/09/01 09:56:40;;;;;;;1.42;0.50;;;;;;;28.22;31.10;101333.41;5104111;28;20409;-92
2023/09/01 09:59:13;;;;;;;1.85;0.60;;;;;;;28.53;31.35;101332.56;5085825;28;20381;-92
2023/09/01 10:01:43;;;;;;;1.30;0.40;;;;;;;28.43;30.81;101344.28;5100948;28;20388;-92
2023/09/01 10:04:11;;;;;;;1.17;0.40;;;;;;;28.55;31.13;101335.84;5082271;28;20416;-90
2023/09/01 10:06:42;;;;;;;0.80;0.40;;;;;;;28.54;31.86;101337.75;5082692;28;20399;-92
2023/09/01 10:09:13;;;;;;;1.30;0.50;;;;;;;28.48;32.35;101344.28;5081280;28;20957;-92
2023/09/01 10:11:42;;;;;;;1.30;0.60;;;;;;;28.49;31.85;101334.19;5054933;28;20395;-91
2023/09/01 10:14:09;;;;;;;1.27;0.50;;;;;;;28.81;32.10;101324.84;5036294;28;20814;-92
2023/09/01 10:16:37;;;;;;;0.50;0.30;;;;;;;28.96;32.24;101327.53;5023779;28;20931;-94
2023/09/01 10:19:05;;;;;;;1.50;0.55;;;;;;;28.95;32.13;101318.53;5021031;28;20945;-92
2023/09/01 10:21:31;;;;;;;0.50;0.40;;;;;;;28.84;32.29;101324.31;5057137;28;20401;-90
2023/09/01 10:24:00;;;;;;;1.20;0.77;;;;;;;28.50;32.51;101317.53;5058226;28;20412;-90
2023/09/01 10:26:28;;;;;;;1.00;0.50;;;;;;;28.93;32.61;101328.09;5054989;28;20459;-90
2023/09/01 10:28:55;;;;;;;0.97;0.50;;;;;;;29.04;32.45;101320.69;5057569;28;20420;-90
2023/09/01 10:31:23;;;;;;;0.82;0.40;;;;;;;28.87;31.42;101330.03;5037593;28;20524;-91
2023/09/01 10:34:13;;;;;;;1.17;0.50;;;;;;;28.89;31.39;101325.09;5038067;28;20402;-90
2023/09/01 10:37:03;;;;;;;0.75;0.40;;;;;;;29.00;31.39;101311.44;5037635;28;20394;-90
2023/09/01 10:39:30;;;;;;;1.38;0.85;;;;;;;29.04;31.59;101318.75;5035694;28;20406;-91
2023/09/01 10:42:08;;;;;;;1.48;0.60;;;;;;;28.97;31.73;101320.97;5040813;28;20498;-90
2023/09/01 10:44:39;;;;;;;0.80;0.38;;;;;;;29.09;31.38;101316.00;5042471;28;20420;-92
2023/09/01 10:47:38;;;;;;;1.10;0.50;;;;;;;29.20;31.52;101311.34;5061867;28;20426;-90
2023/09/01 10:50:06;;;;;;;0.88;0.40;;;;;;;29.39;31.50;101321.63;5051927;28;20395;-89
2023/09/01 10:52:34;;;;;;;1.00;0.43;;;;;;;29.07;30.88;101311.94;5054652;28;20388;-90
2023/09/01 10:55:00;;;;;;;1.07;0.47;;;;;;;29.31;31.39;101315.66;5037418;28;20396;-89
2023/09/01 10:57:43;;;;;;;1.58;0.65;;;;;;;29.43;30.60;101323.50;5052245;28;20384;-90
2023/09/01 11:00:34;;;;;;;1.40;0.60;;;;;;;29.28;30.67;101309.94;5058678;28;20601;-86
2023/09/01 11:03:37;;;;;;;1.02;0.50;;;;;;;29.40;31.26;101309.59;5054014;28;20423;-92
2023/09/01 11:06:04;;;;;;;0.75;0.38;;;;;;;29.32;31.12;101311.84;5089393;28;20486;-88
2023/09/01 11:08:32;;;;;;;1.08;0.60;;;;;;;29.17;31.05;101311.91;5098605;28;20776;-88
2023/09/01 11:11:09;;;;;;;0.85;0.43;;;;;;;29.26;30.65;101295.75;5053004;28;20423;-89
2023/09/01 11:14:15;;;;;;;0.80;0.40;;;;;;;29.23;30.47;101310.00;5054299;28;20393;-92
2023/09/01 11:16:46;;;;;;;0.97;0.40;;;;;;;29.29;30.62;101300.66;4975262;28;20495;-90
2023/09/01 11:19:11;;;;;;;1.00;0.43;;;;;;;29.48;30.82;101289.91;4961669;28;20414;-90
2023/09/01 11:21:41;;;;;;;0.40;0.30;;;;;;;29.26;30.43;101306.69;4976098;28;20453;-89
2023/09/01 11:24:07;;;;;;;0.83;0.40;;;;;;;29.14;29.77;101299.66;4965469;28;20487;-90
2023/09/01 11:26:36;;;;;;;0.50;0.40;;;;;;;28.73;30.45;101294.31;4977418;28;20487;-90
2023/09/01 11:29:06;;;;;;;1.00;0.40;;;;;;;29.08;30.08;101292.56;5016266;28;20462;-93
2023/09/01 11:31:38;;;;;;;1.08;0.60;;;;;;;29.08;29.81;101297.19;5038184;28;20485;-92